Voidomatis — A8FX2 — position and weather

sailwx.info

Track history (hours):
 
Tides and Currents Weather Stations Pressure Air Temp Water Temp Dewpoint Dewpoint Depression Visibility Wind Speed Wind Dir Waves Ship Positions

Voidomatis

Last reported at 2014-Nov-17 14:33 UTC. Time now 2014-Nov-23 03:40 UTC.
Position N 31°46' W 119°05'.

Length 213 m; draft 8 m.

Type: Tanker. MMSI: 636012508.

Date/timePositionNaut miles runAvg speedWind from/ knotsBaromVisibWave heightAir tempDewpointWater temp
2014-Nov-17 14:33N 31°46' W 119°05'1612.5
2014-Nov-17 13:18N 31°59' W 119°16'912.8
2014-Nov-17 12:34N 32°06' W 119°23'1312.9
2014-Nov-17 11:31N 32°17' W 119°32'1213.1
2014-Nov-17 10:34N 32°27' W 119°41'1313.2
2014-Nov-17 09:33N 32°37' W 119°51'20512.8
2014-Nov-16 17:34N 35°32' W 122°00'1312.6
2014-Nov-16 16:29N 35°44' W 122°08'1212.8
2014-Nov-16 15:33N 35°55' W 122°15'1312.6
2014-Nov-16 14:34N 36°06' W 122°22'1312.5
2014-Nov-16 13:33N 36°18' W 122°28'1312.7
2014-Nov-16 12:33N 36°29' W 122°35'1313.4
2014-Nov-16 11:34N 36°41' W 122°43'1413.7
2014-Nov-16 10:34N 36°53' W 122°50'1313.2
2014-Nov-16 09:33N 37°05' W 122°57'1312.8
2014-Nov-16 08:34N 37°17' W 123°04'1512.0
2014-Nov-16 07:18N 37°31' W 123°08'1013.6
2014-Nov-16 06:33N 37°37' W 122°58'1413.7
2014-Nov-16 05:33N 37°45' W 122°43'1212.4
2014-Nov-16 04:33N 37°49' W 122°29'7 6.6
2014-Nov-16 03:29N 37°46' W 122°21'0 0.1
2014-Nov-16 02:32N 37°45' W 122°21'0 0.1
2014-Nov-16 01:32N 37°45' W 122°21'9 9.0
2014-Nov-16 00:34N 37°54' W 122°25'2 1.6
2014-Nov-15 23:31N 37°55' W 122°25'0 0.0
2014-Nov-15 22:31N 37°55' W 122°25'0 0.0
2014-Nov-15 21:31N 37°55' W 122°25'0 0.0
2014-Nov-15 20:31N 37°55' W 122°25'0 0.0
2014-Nov-15 19:31N 37°55' W 122°25'0 0.0
2014-Nov-15 18:31N 37°55' W 122°25'0 0.0
2014-Nov-15 17:31N 37°55' W 122°25'0 0.0
2014-Nov-15 16:31N 37°55' W 122°25'0 0.0
2014-Nov-15 15:31N 37°55' W 122°25'0 0.0
2014-Nov-15 14:31N 37°55' W 122°25'0 0.0
2014-Nov-15 13:31N 37°55' W 122°25'0 0.0
2014-Nov-15 12:31N 37°55' W 122°25'0 0.0
2014-Nov-15 11:31N 37°55' W 122°25'0 0.0
2014-Nov-15 10:31N 37°55' W 122°25'0 0.0
2014-Nov-15 09:31N 37°55' W 122°25'0 0.0
2014-Nov-15 08:31N 37°55' W 122°25'0 0.0
2014-Nov-15 07:31N 37°55' W 122°25'0 0.0
2014-Nov-15 06:31N 37°55' W 122°25'0 0.0
2014-Nov-15 05:31N 37°55' W 122°25'0 0.0
2014-Nov-15 04:31N 37°55' W 122°25'0 0.0
2014-Nov-15 03:31N 37°55' W 122°25'0 0.0
2014-Nov-15 02:31N 37°55' W 122°25'0 0.0
2014-Nov-15 01:28N 37°55' W 122°25'0 0.0
2014-Nov-15 00:31N 37°55' W 122°25'0 0.0
2014-Nov-14 23:31N 37°55' W 122°25'0 0.0
2014-Nov-14 22:31N 37°55' W 122°25'0 0.0
2014-Nov-14 21:31N 37°55' W 122°25'0 0.0
2014-Nov-14 20:31N 37°55' W 122°25'0 0.0
2014-Nov-14 19:28N 37°55' W 122°25'0 0.0
2014-Nov-14 18:31N 37°55' W 122°25'0 0.0
2014-Nov-14 17:31N 37°55' W 122°25'0 0.0
2014-Nov-14 16:31N 37°55' W 122°25'0 0.0
2014-Nov-14 15:28N 37°55' W 122°25'0 0.0
2014-Nov-14 14:28N 37°55' W 122°25'0 0.0
2014-Nov-14 12:31N 37°55' W 122°25'0 0.0
2014-Nov-14 11:33N 37°55' W 122°25'5 4.9
2014-Nov-14 10:33N 37°50' W 122°24'1010.0
2014-Nov-14 09:33N 37°46' W 122°36'8 8.0
2014-Nov-14 08:33N 37°42' W 122°44'7 6.9
2014-Nov-14 07:33N 37°38' W 122°51'9 8.5
2014-Nov-14 06:33N 37°33' W 123°00'  
Track history (hours):
 
Tides and Currents Weather Stations Pressure Air Temp Water Temp Dewpoint Dewpoint Depression Visibility Wind Speed Wind Dir Waves Ship Positions

Voidomatis

Last reported at 2014-Nov-17 14:33 UTC. Time now 2014-Nov-23 03:40 UTC.
Position N 31°46' W 119°05'.

Length 213 m; draft 8 m.

Type: Tanker. MMSI: 636012508.

Date/timePositionNaut miles runAvg speedWind from/ knotsBaromVisibWave heightAir tempDewpointWater temp
2014-Nov-17 14:33N 31°46' W 119°05'1612.5
2014-Nov-17 13:18N 31°59' W 119°16'912.8
2014-Nov-17 12:34N 32°06' W 119°23'1312.9
2014-Nov-17 11:31N 32°17' W 119°32'1213.1
2014-Nov-17 10:34N 32°27' W 119°41'1313.2
2014-Nov-17 09:33N 32°37' W 119°51'20512.8
2014-Nov-16 17:34N 35°32' W 122°00'1312.6
2014-Nov-16 16:29N 35°44' W 122°08'1212.8
2014-Nov-16 15:33N 35°55' W 122°15'1312.6
2014-Nov-16 14:34N 36°06' W 122°22'1312.5
2014-Nov-16 13:33N 36°18' W 122°28'1312.7
2014-Nov-16 12:33N 36°29' W 122°35'1313.4
2014-Nov-16 11:34N 36°41' W 122°43'1413.7
2014-Nov-16 10:34N 36°53' W 122°50'1313.2
2014-Nov-16 09:33N 37°05' W 122°57'1312.8
2014-Nov-16 08:34N 37°17' W 123°04'1512.0
2014-Nov-16 07:18N 37°31' W 123°08'1013.6
2014-Nov-16 06:33N 37°37' W 122°58'1413.7
2014-Nov-16 05:33N 37°45' W 122°43'1212.4
2014-Nov-16 04:33N 37°49' W 122°29'7 6.6
2014-Nov-16 03:29N 37°46' W 122°21'0 0.1
2014-Nov-16 02:32N 37°45' W 122°21'0 0.1
2014-Nov-16 01:32N 37°45' W 122°21'9 9.0
2014-Nov-16 00:34N 37°54' W 122°25'2 1.6
2014-Nov-15 23:31N 37°55' W 122°25'0 0.0
2014-Nov-15 22:31N 37°55' W 122°25'0 0.0
2014-Nov-15 21:31N 37°55' W 122°25'0 0.0
2014-Nov-15 20:31N 37°55' W 122°25'0 0.0
2014-Nov-15 19:31N 37°55' W 122°25'0 0.0
2014-Nov-15 18:31N 37°55' W 122°25'0 0.0
2014-Nov-15 17:31N 37°55' W 122°25'0 0.0
2014-Nov-15 16:31N 37°55' W 122°25'0 0.0
2014-Nov-15 15:31N 37°55' W 122°25'0 0.0
2014-Nov-15 14:31N 37°55' W 122°25'0 0.0
2014-Nov-15 13:31N 37°55' W 122°25'0 0.0
2014-Nov-15 12:31N 37°55' W 122°25'0 0.0
2014-Nov-15 11:31N 37°55' W 122°25'0 0.0
2014-Nov-15 10:31N 37°55' W 122°25'0 0.0
2014-Nov-15 09:31N 37°55' W 122°25'0 0.0
2014-Nov-15 08:31N 37°55' W 122°25'0 0.0
2014-Nov-15 07:31N 37°55' W 122°25'0 0.0
2014-Nov-15 06:31N 37°55' W 122°25'0 0.0
2014-Nov-15 05:31N 37°55' W 122°25'0 0.0
2014-Nov-15 04:31N 37°55' W 122°25'0 0.0
2014-Nov-15 03:31N 37°55' W 122°25'0 0.0
2014-Nov-15 02:31N 37°55' W 122°25'0 0.0
2014-Nov-15 01:28N 37°55' W 122°25'0 0.0
2014-Nov-15 00:31N 37°55' W 122°25'0 0.0
2014-Nov-14 23:31N 37°55' W 122°25'0 0.0
2014-Nov-14 22:31N 37°55' W 122°25'0 0.0
2014-Nov-14 21:31N 37°55' W 122°25'0 0.0
2014-Nov-14 20:31N 37°55' W 122°25'0 0.0
2014-Nov-14 19:28N 37°55' W 122°25'0 0.0
2014-Nov-14 18:31N 37°55' W 122°25'0 0.0
2014-Nov-14 17:31N 37°55' W 122°25'0 0.0
2014-Nov-14 16:31N 37°55' W 122°25'0 0.0
2014-Nov-14 15:28N 37°55' W 122°25'0 0.0
2014-Nov-14 14:28N 37°55' W 122°25'0 0.0
2014-Nov-14 12:31N 37°55' W 122°25'0 0.0
2014-Nov-14 11:33N 37°55' W 122°25'5 4.9
2014-Nov-14 10:33N 37°50' W 122°24'1010.0
2014-Nov-14 09:33N 37°46' W 122°36'8 8.0
2014-Nov-14 08:33N 37°42' W 122°44'7 6.9
2014-Nov-14 07:33N 37°38' W 122°51'9 8.5
2014-Nov-14 06:33N 37°33' W 123°00'  

Dump ship's entire track history